sensor_id;sensor_type;location;lat;lon;timestamp;pressure;altitude;pressure_sealevel;temperature
74539;BMP180;66042;51.090;-115.340;2023-06-01T00:01:02;85899.80;;;51.90
74539;BMP180;66042;51.090;-115.340;2023-06-01T00:03:30;85897.20;;;52.40
74539;BMP180;66042;51.090;-115.340;2023-06-01T00:05:58;85894.60;;;52.70
74539;BMP180;66042;51.090;-115.340;2023-06-01T00:08:25;85895.20;;;52.90
74539;BMP180;66042;51.090;-115.340;2023-06-01T00:10:51;85911.60;;;52.30
74539;BMP180;66042;51.090;-115.340;2023-06-01T00:13:19;85896.20;;;50.04
74539;BMP180;66042;51.090;-115.340;2023-06-01T00:15:46;85896.80;;;50.20
74539;BMP180;66042;51.090;-115.340;2023-06-01T00:18:14;85906.80;;;49.88
74539;BMP180;66042;51.090;-115.340;2023-06-01T00:20:42;85909.60;;;48.06
74539;BMP180;66042;51.090;-115.340;2023-06-01T00:23:11;85916.80;;;46.76
74539;BMP180;66042;51.090;-115.340;2023-06-01T00:25:38;85915.20;;;44.96
74539;BMP180;66042;51.090;-115.340;2023-06-01T00:28:05;85907.60;;;44.60
74539;BMP180;66042;51.090;-115.340;2023-06-01T00:30:32;85902.80;;;45.18
74539;BMP180;66042;51.090;-115.340;2023-06-01T00:33:00;85905.80;;;45.84
74539;BMP180;66042;51.090;-115.340;2023-06-01T00:35:26;85904.20;;;46.34
74539;BMP180;66042;51.090;-115.340;2023-06-01T00:37:54;85902.00;;;46.98
74539;BMP180;66042;51.090;-115.340;2023-06-01T00:40:21;85904.20;;;47.30
74539;BMP180;66042;51.090;-115.340;2023-06-01T00:42:48;85905.40;;;47.40
74539;BMP180;66042;51.090;-115.340;2023-06-01T00:45:15;85913.40;;;46.48
74539;BMP180;66042;51.090;-115.340;2023-06-01T00:47:44;85910.00;;;44.98
74539;BMP180;66042;51.090;-115.340;2023-06-01T00:50:14;85910.80;;;44.66
74539;BMP180;66042;51.090;-115.340;2023-06-01T00:52:43;85921.00;;;43.92
74539;BMP180;66042;51.090;-115.340;2023-06-01T00:55:10;85925.60;;;43.04
74539;BMP180;66042;51.090;-115.340;2023-06-01T00:57:39;85923.60;;;41.90
74539;BMP180;66042;51.090;-115.340;2023-06-01T01:00:09;85919.80;;;40.60
74539;BMP180;66042;51.090;-115.340;2023-06-01T01:02:39;85919.60;;;39.56
74539;BMP180;66042;51.090;-115.340;2023-06-01T01:05:07;85922.00;;;38.80
74539;BMP180;66042;51.090;-115.340;2023-06-01T01:08:20;85923.60;;;38.10
74539;BMP180;66042;51.090;-115.340;2023-06-01T01:11:19;85918.60;;;37.34
74539;BMP180;66042;51.090;-115.340;2023-06-01T01:14:14;85914.80;;;36.74
74539;BMP180;66042;51.090;-115.340;2023-06-01T01:17:01;85922.00;;;36.26
74539;BMP180;66042;51.090;-115.340;2023-06-01T01:20:01;85918.40;;;36.04
74539;BMP180;66042;51.090;-115.340;2023-06-01T01:22:54;85916.20;;;36.00
74539;BMP180;66042;51.090;-115.340;2023-06-01T01:26:12;85916.40;;;36.16
74539;BMP180;66042;51.090;-115.340;2023-06-01T01:28:52;85915.40;;;37.08
74539;BMP180;66042;51.090;-115.340;2023-06-01T01:31:24;85917.40;;;37.74
74539;BMP180;66042;51.090;-115.340;2023-06-01T01:33:54;85922.20;;;38.10
74539;BMP180;66042;51.090;-115.340;2023-06-01T01:36:23;85923.60;;;38.58
74539;BMP180;66042;51.090;-115.340;2023-06-01T01:38:51;85923.20;;;38.94
74539;BMP180;66042;51.090;-115.340;2023-06-01T01:41:19;85929.20;;;39.20
74539;BMP180;66042;51.090;-115.340;2023-06-01T01:43:49;85927.00;;;39.58
74539;BMP180;66042;51.090;-115.340;2023-06-01T01:46:27;85937.60;;;39.80
74539;BMP180;66042;51.090;-115.340;2023-06-01T01:49:18;85940.40;;;39.66
74539;BMP180;66042;51.090;-115.340;2023-06-01T01:54:42;85939.80;;;37.58
74539;BMP180;66042;51.090;-115.340;2023-06-01T01:57:12;85945.00;;;36.78
74539;BMP180;66042;51.090;-115.340;2023-06-01T01:59:43;85944.60;;;36.00
74539;BMP180;66042;51.090;-115.340;2023-06-01T02:02:12;85943.00;;;35.16
74539;BMP180;66042;51.090;-115.340;2023-06-01T02:04:43;85942.20;;;34.20
74539;BMP180;66042;51.090;-115.340;2023-06-01T02:07:12;85947.00;;;33.48
74539;BMP180;66042;51.090;-115.340;2023-06-01T02:09:40;85944.60;;;32.92
74539;BMP180;66042;51.090;-115.340;2023-06-01T02:12:08;85938.60;;;32.42
74539;BMP180;66042;51.090;-115.340;2023-06-01T02:14:35;85939.80;;;31.96
74539;BMP180;66042;51.090;-115.340;2023-06-01T02:17:02;85939.00;;;31.56
74539;BMP180;66042;51.090;-115.340;2023-06-01T02:19:29;85941.60;;;31.16
74539;BMP180;66042;51.090;-115.340;2023-06-01T02:21:57;85939.20;;;30.80
74539;BMP180;66042;51.090;-115.340;2023-06-01T02:24:23;85938.00;;;30.44
74539;BMP180;66042;51.090;-115.340;2023-06-01T02:26:50;85933.80;;;30.10
74539;BMP180;66042;51.090;-115.340;2023-06-01T02:29:21;85926.00;;;29.70
74539;BMP180;66042;51.090;-115.340;2023-06-01T02:31:50;85937.00;;;29.26
74539;BMP180;66042;51.090;-115.340;2023-06-01T02:34:20;85938.20;;;29.00
74539;BMP180;66042;51.090;-115.340;2023-06-01T02:36:47;85938.00;;;28.70
74539;BMP180;66042;51.090;-115.340;2023-06-01T02:39:15;85939.60;;;28.50
74539;BMP180;66042;51.090;-115.340;2023-06-01T02:41:43;85945.20;;;28.22
74539;BMP180;66042;51.090;-115.340;2023-06-01T02:44:10;85948.60;;;28.00
74539;BMP180;66042;51.090;-115.340;2023-06-01T02:46:38;85952.00;;;27.70
74539;BMP180;66042;51.090;-115.340;2023-06-01T02:49:05;85951.80;;;27.32
74539;BMP180;66042;51.090;-115.340;2023-06-01T02:51:32;85956.40;;;27.10
74539;BMP180;66042;51.090;-115.340;2023-06-01T02:54:00;85961.20;;;26.80
74539;BMP180;66042;51.090;-115.340;2023-06-01T02:56:27;85960.00;;;26.56
74539;BMP180;66042;51.090;-115.340;2023-06-01T02:58:54;85963.60;;;26.30
74539;BMP180;66042;51.090;-115.340;2023-06-01T03:01:22;85963.40;;;26.00
74539;BMP180;66042;51.090;-115.340;2023-06-01T03:03:49;85967.20;;;25.70
74539;BMP180;66042;51.090;-115.340;2023-06-01T03:06:18;85976.40;;;25.50
74539;BMP180;66042;51.090;-115.340;2023-06-01T03:08:48;85978.80;;;25.30
74539;BMP180;66042;51.090;-115.340;2023-06-01T03:11:18;85986.60;;;25.20
74539;BMP180;66042;51.090;-115.340;2023-06-01T03:13:45;85989.80;;;25.04
74539;BMP180;66042;51.090;-115.340;2023-06-01T03:16:12;85985.40;;;24.90
74539;BMP180;66042;51.090;-115.340;2023-06-01T03:18:39;85991.40;;;24.70
74539;BMP180;66042;51.090;-115.340;2023-06-01T03:21:06;85992.20;;;24.60
74539;BMP180;66042;51.090;-115.340;2023-06-01T03:23:33;85994.60;;;24.40
74539;BMP180;66042;51.090;-115.340;2023-06-01T03:26:00;85998.80;;;24.22
74539;BMP180;66042;51.090;-115.340;2023-06-01T03:28:30;85998.60;;;24.10
74539;BMP180;66042;51.090;-115.340;2023-06-01T03:30:58;86001.00;;;24.00
74539;BMP180;66042;51.090;-115.340;2023-06-01T03:33:26;86000.80;;;23.88
74539;BMP180;66042;51.090;-115.340;2023-06-01T03:35:53;86005.40;;;23.70
74539;BMP180;66042;51.090;-115.340;2023-06-01T03:38:20;86010.00;;;23.60
74539;BMP180;66042;51.090;-115.340;2023-06-01T03:40:48;86015.60;;;23.50
74539;BMP180;66042;51.090;-115.340;2023-06-01T03:43:15;86019.20;;;23.40
74539;BMP180;66042;51.090;-115.340;2023-06-01T03:45:42;86019.20;;;23.22
74539;BMP180;66042;51.090;-115.340;2023-06-01T03:48:09;86025.80;;;23.10
74539;BMP180;66042;51.090;-115.340;2023-06-01T03:50:39;86029.20;;;22.92
74539;BMP180;66042;51.090;-115.340;2023-06-01T03:53:05;86032.40;;;22.80
74539;BMP180;66042;51.090;-115.340;2023-06-01T03:55:32;86041.00;;;22.60
74539;BMP180;66042;51.090;-115.340;2023-06-01T03:58:01;86039.60;;;22.50
74539;BMP180;66042;51.090;-115.340;2023-06-01T04:00:29;86041.40;;;22.40
74539;BMP180;66042;51.090;-115.340;2023-06-01T04:02:58;86042.40;;;22.30
74539;BMP180;66042;51.090;-115.340;2023-06-01T04:05:27;86045.60;;;22.20
74539;BMP180;66042;51.090;-115.340;2023-06-01T04:07:55;86046.00;;;22.10
74539;BMP180;66042;51.090;-115.340;2023-06-01T04:10:22;86048.80;;;22.02
74539;BMP180;66042;51.090;-115.340;2023-06-01T04:12:50;86053.00;;;21.92
74539;BMP180;66042;51.090;-115.340;2023-06-01T04:15:19;86061.40;;;21.82
74539;BMP180;66042;51.090;-115.340;2023-06-01T04:17:47;86060.80;;;21.70
74539;BMP180;66042;51.090;-115.340;2023-06-01T04:20:16;86067.20;;;21.60
74539;BMP180;66042;51.090;-115.340;2023-06-01T04:22:45;86072.40;;;21.58
74539;BMP180;66042;51.090;-115.340;2023-06-01T04:25:15;86075.20;;;21.50
74539;BMP180;66042;51.090;-115.340;2023-06-01T04:27:49;86078.60;;;21.30
74539;BMP180;66042;51.090;-115.340;2023-06-01T04:30:17;86081.20;;;21.20
74539;BMP180;66042;51.090;-115.340;2023-06-01T04:32:45;86082.40;;;21.10
74539;BMP180;66042;51.090;-115.340;2023-06-01T04:35:14;86080.40;;;21.00
74539;BMP180;66042;51.090;-115.340;2023-06-01T04:37:43;86085.40;;;20.90
74539;BMP180;66042;51.090;-115.340;2023-06-01T04:40:12;86088.20;;;20.80
74539;BMP180;66042;51.090;-115.340;2023-06-01T04:42:42;86094.60;;;20.68
74539;BMP180;66042;51.090;-115.340;2023-06-01T04:45:15;86099.40;;;20.50
74539;BMP180;66042;51.090;-115.340;2023-06-01T04:47:43;86097.40;;;20.40
74539;BMP180;66042;51.090;-115.340;2023-06-01T04:50:12;86106.00;;;20.36
74539;BMP180;66042;51.090;-115.340;2023-06-01T04:52:41;86112.60;;;20.20
74539;BMP180;66042;51.090;-115.340;2023-06-01T04:55:10;86111.00;;;20.10
74539;BMP180;66042;51.090;-115.340;2023-06-01T04:57:41;86110.00;;;20.00
74539;BMP180;66042;51.090;-115.340;2023-06-01T05:00:15;86110.80;;;19.90
74539;BMP180;66042;51.090;-115.340;2023-06-01T05:02:46;86115.80;;;19.70
74539;BMP180;66042;51.090;-115.340;2023-06-01T05:05:15;86123.40;;;19.60
74539;BMP180;66042;51.090;-115.340;2023-06-01T05:07:44;86134.00;;;19.50
74539;BMP180;66042;51.090;-115.340;2023-06-01T05:10:13;86136.20;;;19.40
74539;BMP180;66042;51.090;-115.340;2023-06-01T05:12:40;86143.60;;;19.30
74539;BMP180;66042;51.090;-115.340;2023-06-01T05:15:09;86144.40;;;19.20
74539;BMP180;66042;51.090;-115.340;2023-06-01T05:17:37;86149.80;;;19.08
74539;BMP180;66042;51.090;-115.340;2023-06-01T05:20:06;86156.00;;;19.00
74539;BMP180;66042;51.090;-115.340;2023-06-01T05:22:35;86163.00;;;18.90
74539;BMP180;66042;51.090;-115.340;2023-06-01T05:25:03;86163.00;;;18.80
74539;BMP180;66042;51.090;-115.340;2023-06-01T05:27:32;86170.40;;;18.70
74539;BMP180;66042;51.090;-115.340;2023-06-01T05:29:59;86168.80;;;18.60
74539;BMP180;66042;51.090;-115.340;2023-06-01T05:32:27;86168.20;;;18.40
74539;BMP180;66042;51.090;-115.340;2023-06-01T05:34:54;86174.60;;;18.30
74539;BMP180;66042;51.090;-115.340;2023-06-01T05:37:21;86170.20;;;18.20
74539;BMP180;66042;51.090;-115.340;2023-06-01T05:39:48;86171.80;;;18.10
74539;BMP180;66042;51.090;-115.340;2023-06-01T05:42:15;86170.60;;;18.00
74539;BMP180;66042;51.090;-115.340;2023-06-01T05:44:42;86175.40;;;17.90
74539;BMP180;66042;51.090;-115.340;2023-06-01T05:47:09;86179.80;;;17.80
74539;BMP180;66042;51.090;-115.340;2023-06-01T05:49:37;86177.20;;;17.80
74539;BMP180;66042;51.090;-115.340;2023-06-01T05:52:04;86175.40;;;17.70
74539;BMP180;66042;51.090;-115.340;2023-06-01T05:54:32;86188.40;;;17.60
74539;BMP180;66042;51.090;-115.340;2023-06-01T05:56:59;86192.20;;;17.40
74539;BMP180;66042;51.090;-115.340;2023-06-01T05:59:27;86192.20;;;17.36
74539;BMP180;66042;51.090;-115.340;2023-06-01T06:01:55;86192.40;;;17.30
74539;BMP180;66042;51.090;-115.340;2023-06-01T06:04:22;86196.80;;;17.30
74539;BMP180;66042;51.090;-115.340;2023-06-01T06:06:49;86196.40;;;17.20
74539;BMP180;66042;51.090;-115.340;2023-06-01T06:09:16;86205.20;;;17.20
74539;BMP180;66042;51.090;-115.340;2023-06-01T06:11:44;86205.20;;;17.10
74539;BMP180;66042;51.090;-115.340;2023-06-01T06:14:11;86205.80;;;17.10
74539;BMP180;66042;51.090;-115.340;2023-06-01T06:16:40;86203.80;;;17.00
74539;BMP180;66042;51.090;-115.340;2023-06-01T06:19:08;86208.00;;;16.90
74539;BMP180;66042;51.090;-115.340;2023-06-01T06:21:35;86205.80;;;16.90
74539;BMP180;66042;51.090;-115.340;2023-06-01T06:24:04;86208.20;;;16.80
74539;BMP180;66042;51.090;-115.340;2023-06-01T06:26:31;86215.80;;;16.70
74539;BMP180;66042;51.090;-115.340;2023-06-01T06:28:58;86218.20;;;16.60
74539;BMP180;66042;51.090;-115.340;2023-06-01T06:31:27;86219.00;;;16.60
74539;BMP180;66042;51.090;-115.340;2023-06-01T06:33:54;86223.80;;;16.50
74539;BMP180;66042;51.090;-115.340;2023-06-01T06:36:21;86215.80;;;16.44
74539;BMP180;66042;51.090;-115.340;2023-06-01T06:38:48;86219.00;;;16.40
74539;BMP180;66042;51.090;-115.340;2023-06-01T06:41:14;86217.80;;;16.40
74539;BMP180;66042;51.090;-115.340;2023-06-01T06:43:41;86221.20;;;16.40
74539;BMP180;66042;51.090;-115.340;2023-06-01T06:46:09;86225.20;;;16.30
74539;BMP180;66042;51.090;-115.340;2023-06-01T06:48:36;86230.80;;;16.20
74539;BMP180;66042;51.090;-115.340;2023-06-01T06:51:03;86230.80;;;16.20
74539;BMP180;66042;51.090;-115.340;2023-06-01T06:53:31;86236.40;;;16.20
74539;BMP180;66042;51.090;-115.340;2023-06-01T06:55:59;86239.00;;;16.20
74539;BMP180;66042;51.090;-115.340;2023-06-01T06:58:26;86234.20;;;16.10
74539;BMP180;66042;51.090;-115.340;2023-06-01T07:00:53;86237.80;;;16.10
74539;BMP180;66042;51.090;-115.340;2023-06-01T07:03:20;86240.40;;;16.08
74539;BMP180;66042;51.090;-115.340;2023-06-01T07:05:47;86235.60;;;16.08
74539;BMP180;66042;51.090;-115.340;2023-06-01T07:08:15;86232.60;;;16.00
74539;BMP180;66042;51.090;-115.340;2023-06-01T07:10:43;86232.20;;;16.00
74539;BMP180;66042;51.090;-115.340;2023-06-01T07:13:10;86230.40;;;15.92
74539;BMP180;66042;51.090;-115.340;2023-06-01T07:15:37;86235.00;;;15.90
74539;BMP180;66042;51.090;-115.340;2023-06-01T07:18:03;86239.60;;;15.90
74539;BMP180;66042;51.090;-115.340;2023-06-01T07:20:30;86243.40;;;15.80
74539;BMP180;66042;51.090;-115.340;2023-06-01T07:22:57;86239.80;;;15.80
74539;BMP180;66042;51.090;-115.340;2023-06-01T07:25:24;86242.20;;;15.70
74539;BMP180;66042;51.090;-115.340;2023-06-01T07:27:51;86240.00;;;15.70
74539;BMP180;66042;51.090;-115.340;2023-06-01T07:30:19;86242.60;;;15.70
74539;BMP180;66042;51.090;-115.340;2023-06-01T07:32:46;86249.00;;;15.70
74539;BMP180;66042;51.090;-115.340;2023-06-01T07:35:13;86245.80;;;15.60
74539;BMP180;66042;51.090;-115.340;2023-06-01T07:37:40;86245.80;;;15.60
74539;BMP180;66042;51.090;-115.340;2023-06-01T07:40:07;86246.20;;;15.60
74539;BMP180;66042;51.090;-115.340;2023-06-01T07:42:35;86248.00;;;15.58
74539;BMP180;66042;51.090;-115.340;2023-06-01T07:45:02;86250.00;;;15.50
74539;BMP180;66042;51.090;-115.340;2023-06-01T07:47:29;86248.80;;;15.50
74539;BMP180;66042;51.090;-115.340;2023-06-01T07:49:57;86259.80;;;15.50
74539;BMP180;66042;51.090;-115.340;2023-06-01T07:52:24;86260.00;;;15.40
74539;BMP180;66042;51.090;-115.340;2023-06-01T07:54:51;86262.40;;;15.40
74539;BMP180;66042;51.090;-115.340;2023-06-01T07:57:18;86262.20;;;15.30
74539;BMP180;66042;51.090;-115.340;2023-06-01T07:59:45;86265.40;;;15.30
74539;BMP180;66042;51.090;-115.340;2023-06-01T08:02:12;86268.40;;;15.30
74539;BMP180;66042;51.090;-115.340;2023-06-01T08:04:41;86266.80;;;15.30
74539;BMP180;66042;51.090;-115.340;2023-06-01T08:07:09;86269.60;;;15.30
74539;BMP180;66042;51.090;-115.340;2023-06-01T08:09:36;86270.20;;;15.20
74539;BMP180;66042;51.090;-115.340;2023-06-01T08:12:06;86280.40;;;15.20
74539;BMP180;66042;51.090;-115.340;2023-06-01T08:14:34;86274.40;;;15.20
74539;BMP180;66042;51.090;-115.340;2023-06-01T08:17:04;86276.60;;;15.10
74539;BMP180;66042;51.090;-115.340;2023-06-01T08:19:34;86280.20;;;15.10
74539;BMP180;66042;51.090;-115.340;2023-06-01T08:22:02;86282.40;;;15.10
74539;BMP180;66042;51.090;-115.340;2023-06-01T08:24:30;86287.20;;;15.00
74539;BMP180;66042;51.090;-115.340;2023-06-01T08:26:58;86291.00;;;15.00
74539;BMP180;66042;51.090;-115.340;2023-06-01T08:29:26;86295.60;;;15.00
74539;BMP180;66042;51.090;-115.340;2023-06-01T08:31:53;86294.20;;;15.00
74539;BMP180;66042;51.090;-115.340;2023-06-01T08:34:20;86297.00;;;15.00
74539;BMP180;66042;51.090;-115.340;2023-06-01T08:36:47;86302.40;;;15.00
74539;BMP180;66042;51.090;-115.340;2023-06-01T08:39:24;86301.80;;;15.00
74539;BMP180;66042;51.090;-115.340;2023-06-01T08:42:34;86303.60;;;15.00
74539;BMP180;66042;51.090;-115.340;2023-06-01T08:45:05;86294.60;;;14.90
74539;BMP180;66042;51.090;-115.340;2023-06-01T08:47:35;86300.20;;;14.90
74539;BMP180;66042;51.090;-115.340;2023-06-01T08:50:03;86297.60;;;14.90
74539;BMP180;66042;51.090;-115.340;2023-06-01T08:52:34;86297.60;;;14.90
74539;BMP180;66042;51.090;-115.340;2023-06-01T08:55:06;86299.20;;;14.80
74539;BMP180;66042;51.090;-115.340;2023-06-01T08:57:35;86298.80;;;14.80
74539;BMP180;66042;51.090;-115.340;2023-06-01T09:00:03;86303.20;;;14.80
74539;BMP180;66042;51.090;-115.340;2023-06-01T09:02:30;86302.20;;;14.80
74539;BMP180;66042;51.090;-115.340;2023-06-01T09:04:58;86299.40;;;14.74
74539;BMP180;66042;51.090;-115.340;2023-06-01T09:07:26;86301.80;;;14.70
74539;BMP180;66042;51.090;-115.340;2023-06-01T09:09:54;86305.40;;;14.70
74539;BMP180;66042;51.090;-115.340;2023-06-01T09:12:30;86305.80;;;14.70
74539;BMP180;66042;51.090;-115.340;2023-06-01T09:15:13;86314.60;;;14.70
74539;BMP180;66042;51.090;-115.340;2023-06-01T09:17:45;86315.80;;;14.62
74539;BMP180;66042;51.090;-115.340;2023-06-01T09:20:25;86318.00;;;14.60
74539;BMP180;66042;51.090;-115.340;2023-06-01T09:22:54;86320.00;;;14.60
74539;BMP180;66042;51.090;-115.340;2023-06-01T09:25:31;86326.40;;;14.60
74539;BMP180;66042;51.090;-115.340;2023-06-01T09:28:01;86325.80;;;14.60
74539;BMP180;66042;51.090;-115.340;2023-06-01T09:30:43;86327.60;;;14.60
74539;BMP180;66042;51.090;-115.340;2023-06-01T09:33:16;86331.40;;;14.60
74539;BMP180;66042;51.090;-115.340;2023-06-01T09:35:48;86333.00;;;14.58
74539;BMP180;66042;51.090;-115.340;2023-06-01T09:38:24;86335.20;;;14.54
74539;BMP180;66042;51.090;-115.340;2023-06-01T09:40:59;86337.00;;;14.56
74539;BMP180;66042;51.090;-115.340;2023-06-01T09:43:27;86339.60;;;14.52
74539;BMP180;66042;51.090;-115.340;2023-06-01T09:46:11;86339.60;;;14.60
74539;BMP180;66042;51.090;-115.340;2023-06-01T09:48:41;86343.40;;;14.60
74539;BMP180;66042;51.090;-115.340;2023-06-01T09:51:25;86347.80;;;14.60
74539;BMP180;66042;51.090;-115.340;2023-06-01T09:53:56;86347.00;;;14.52
74539;BMP180;66042;51.090;-115.340;2023-06-01T09:56:22;86349.00;;;14.50
74539;BMP180;66042;51.090;-115.340;2023-06-01T09:58:58;86350.80;;;14.50
74539;BMP180;66042;51.090;-115.340;2023-06-01T10:01:30;86352.40;;;14.50
74539;BMP180;66042;51.090;-115.340;2023-06-01T10:04:01;86351.80;;;14.50
74539;BMP180;66042;51.090;-115.340;2023-06-01T10:06:37;86357.00;;;14.40
74539;BMP180;66042;51.090;-115.340;2023-06-01T10:09:11;86359.20;;;14.40
74539;BMP180;66042;51.090;-115.340;2023-06-01T10:11:45;86364.00;;;14.40
74539;BMP180;66042;51.090;-115.340;2023-06-01T10:14:12;86361.00;;;14.36
74539;BMP180;66042;51.090;-115.340;2023-06-01T10:16:39;86365.40;;;14.38
74539;BMP180;66042;51.090;-115.340;2023-06-01T10:19:09;86369.20;;;14.36
74539;BMP180;66042;51.090;-115.340;2023-06-01T10:21:36;86374.20;;;14.32
74539;BMP180;66042;51.090;-115.340;2023-06-01T10:24:06;86380.20;;;14.30
74539;BMP180;66042;51.090;-115.340;2023-06-01T10:29:54;86387.60;;;14.22
74539;BMP180;66042;51.090;-115.340;2023-06-01T10:32:45;86394.00;;;14.20
74539;BMP180;66042;51.090;-115.340;2023-06-01T10:40:37;86401.00;;;14.20
74539;BMP180;66042;51.090;-115.340;2023-06-01T10:43:04;86405.20;;;14.10
74539;BMP180;66042;51.090;-115.340;2023-06-01T10:45:37;86405.00;;;14.04
74539;BMP180;66042;51.090;-115.340;2023-06-01T10:48:11;86408.60;;;14.00
74539;BMP180;66042;51.090;-115.340;2023-06-01T10:50:41;86408.40;;;14.00
74539;BMP180;66042;51.090;-115.340;2023-06-01T10:56:21;86410.60;;;13.90
74539;BMP180;66042;51.090;-115.340;2023-06-01T11:01:43;86414.00;;;13.90
74539;BMP180;66042;51.090;-115.340;2023-06-01T11:04:12;86411.20;;;13.80
74539;BMP180;66042;51.090;-115.340;2023-06-01T11:06:41;86413.40;;;13.80
74539;BMP180;66042;51.090;-115.340;2023-06-01T11:09:11;86417.80;;;13.76
74539;BMP180;66042;51.090;-115.340;2023-06-01T11:14:23;86414.80;;;13.64
74539;BMP180;66042;51.090;-115.340;2023-06-01T11:16:52;86414.60;;;13.60
74539;BMP180;66042;51.090;-115.340;2023-06-01T11:19:22;86421.60;;;13.58
74539;BMP180;66042;51.090;-115.340;2023-06-01T11:21:58;86424.60;;;13.50
74539;BMP180;66042;51.090;-115.340;2023-06-01T11:24:37;86433.20;;;13.50
74539;BMP180;66042;51.090;-115.340;2023-06-01T11:27:09;86435.80;;;13.44
74539;BMP180;66042;51.090;-115.340;2023-06-01T11:29:37;86432.80;;;13.40
74539;BMP180;66042;51.090;-115.340;2023-06-01T11:32:06;86437.80;;;13.40
74539;BMP180;66042;51.090;-115.340;2023-06-01T11:34:36;86439.60;;;13.40
74539;BMP180;66042;51.090;-115.340;2023-06-01T11:37:16;86441.00;;;13.36
74539;BMP180;66042;51.090;-115.340;2023-06-01T11:39:44;86442.20;;;13.30
74539;BMP180;66042;51.090;-115.340;2023-06-01T11:42:17;86449.60;;;13.30
74539;BMP180;66042;51.090;-115.340;2023-06-01T11:44:56;86451.40;;;13.30
74539;BMP180;66042;51.090;-115.340;2023-06-01T11:47:29;86460.60;;;13.30
74539;BMP180;66042;51.090;-115.340;2023-06-01T11:49:56;86465.20;;;13.30
74539;BMP180;66042;51.090;-115.340;2023-06-01T11:52:23;86464.20;;;13.30
74539;BMP180;66042;51.090;-115.340;2023-06-01T11:54:50;86466.40;;;13.30
74539;BMP180;66042;51.090;-115.340;2023-06-01T11:57:19;86478.60;;;13.30
74539;BMP180;66042;51.090;-115.340;2023-06-01T11:59:49;86470.60;;;13.22
74539;BMP180;66042;51.090;-115.340;2023-06-01T12:02:21;86474.40;;;13.20
74539;BMP180;66042;51.090;-115.340;2023-06-01T12:05:03;86475.20;;;13.20
74539;BMP180;66042;51.090;-115.340;2023-06-01T12:07:46;86488.00;;;13.20
74539;BMP180;66042;51.090;-115.340;2023-06-01T12:10:15;86489.60;;;13.20
74539;BMP180;66042;51.090;-115.340;2023-06-01T12:12:44;86492.40;;;13.16
74539;BMP180;66042;51.090;-115.340;2023-06-01T12:15:13;86493.00;;;13.16
74539;BMP180;66042;51.090;-115.340;2023-06-01T12:17:55;86503.00;;;13.20
74539;BMP180;66042;51.090;-115.340;2023-06-01T12:20:28;86504.20;;;13.20
74539;BMP180;66042;51.090;-115.340;2023-06-01T12:22:57;86510.40;;;13.12
74539;BMP180;66042;51.090;-115.340;2023-06-01T12:25:25;86504.80;;;13.10
74539;BMP180;66042;51.090;-115.340;2023-06-01T12:28:07;86509.00;;;13.10
74539;BMP180;66042;51.090;-115.340;2023-06-01T12:30:36;86515.80;;;13.00
74539;BMP180;66042;51.090;-115.340;2023-06-01T12:33:03;86517.20;;;13.00
74539;BMP180;66042;51.090;-115.340;2023-06-01T12:35:33;86524.80;;;13.06
74539;BMP180;66042;51.090;-115.340;2023-06-01T12:38:10;86528.80;;;13.00
74539;BMP180;66042;51.090;-115.340;2023-06-01T12:40:38;86528.80;;;13.00
74539;BMP180;66042;51.090;-115.340;2023-06-01T12:43:06;86530.20;;;13.00
74539;BMP180;66042;51.090;-115.340;2023-06-01T12:45:43;86530.00;;;13.00
74539;BMP180;66042;51.090;-115.340;2023-06-01T12:48:31;86534.80;;;12.92
74539;BMP180;66042;51.090;-115.340;2023-06-01T12:51:03;86536.20;;;12.92
74539;BMP180;66042;51.090;-115.340;2023-06-01T12:53:30;86539.00;;;12.90
74539;BMP180;66042;51.090;-115.340;2023-06-01T12:55:57;86538.80;;;12.90
74539;BMP180;66042;51.090;-115.340;2023-06-01T12:58:24;86543.80;;;12.90
74539;BMP180;66042;51.090;-115.340;2023-06-01T13:00:54;86544.20;;;12.90
74539;BMP180;66042;51.090;-115.340;2023-06-01T13:03:21;86542.60;;;12.90
74539;BMP180;66042;51.090;-115.340;2023-06-01T13:05:49;86552.60;;;12.90
74539;BMP180;66042;51.090;-115.340;2023-06-01T13:08:17;86551.00;;;12.90
74539;BMP180;66042;51.090;-115.340;2023-06-01T13:10:46;86556.40;;;12.90
74539;BMP180;66042;51.090;-115.340;2023-06-01T13:13:13;86557.60;;;13.00
74539;BMP180;66042;51.090;-115.340;2023-06-01T13:15:44;86554.80;;;13.00
74539;BMP180;66042;51.090;-115.340;2023-06-01T13:18:12;86557.00;;;13.10
74539;BMP180;66042;51.090;-115.340;2023-06-01T13:20:39;86559.80;;;13.10
74539;BMP180;66042;51.090;-115.340;2023-06-01T13:23:06;86562.60;;;13.10
74539;BMP180;66042;51.090;-115.340;2023-06-01T13:25:35;86567.40;;;13.10
74539;BMP180;66042;51.090;-115.340;2023-06-01T13:28:02;86564.60;;;13.10
74539;BMP180;66042;51.090;-115.340;2023-06-01T13:30:29;86566.40;;;13.10
74539;BMP180;66042;51.090;-115.340;2023-06-01T13:32:57;86569.80;;;13.10
74539;BMP180;66042;51.090;-115.340;2023-06-01T13:35:24;86580.00;;;13.10
74539;BMP180;66042;51.090;-115.340;2023-06-01T13:37:52;86583.80;;;13.08
74539;BMP180;66042;51.090;-115.340;2023-06-01T13:40:19;86585.20;;;13.10
74539;BMP180;66042;51.090;-115.340;2023-06-01T13:42:53;86588.80;;;13.10
74539;BMP180;66042;51.090;-115.340;2023-06-01T13:45:21;86588.00;;;13.10
74539;BMP180;66042;51.090;-115.340;2023-06-01T13:47:49;86588.40;;;13.02
74539;BMP180;66042;51.090;-115.340;2023-06-01T13:50:17;86589.80;;;13.00
74539;BMP180;66042;51.090;-115.340;2023-06-01T13:52:44;86595.00;;;13.00
74539;BMP180;66042;51.090;-115.340;2023-06-01T13:55:12;86596.80;;;13.00
74539;BMP180;66042;51.090;-115.340;2023-06-01T13:57:41;86597.80;;;12.90
74539;BMP180;66042;51.090;-115.340;2023-06-01T14:00:08;86599.80;;;12.90
74539;BMP180;66042;51.090;-115.340;2023-06-01T14:02:35;86603.40;;;12.90
74539;BMP180;66042;51.090;-115.340;2023-06-01T14:05:03;86607.40;;;12.90
74539;BMP180;66042;51.090;-115.340;2023-06-01T14:07:30;86607.80;;;12.90